Terminal Aerodrome Forecast
Issued by NWS Louisville, KY

Home | Current Version | Previous Version | Text Only | Print | Product List | Glossary On
Versions: 1 2 3 4 5 6 7 8 9 10 11 12 13 14 15 16 17 18
089
FTUS43 KLMK 200520
TAFBWG
TAF
KBWG 200520Z 2006/2106 00000KT 1SM BR SKC
      TEMPO 2006/2010 1/4SM FG VV002
     FM201000 00000KT 3/4SM BR SCT002
      TEMPO 2010/2012 1/2SM FG VV002
     FM201300 22004KT P6SM FEW040 SCT120=

USA.gov is the U.S. government's official web portal to all federal, state and local government web resources and services.